Élőkép

Információk

Albatrosz Repülő Egyesület
8000 Székesfehérvár,
Radványi utca 6.

Adószám:
19092908-2-07

Bankszámla szám:
Budapest Bank
10102952-01361819-00000001

Telefon: +36 30 9598-897

Telephey: Börgönd repülőtér

Börgöndi repülõtér

LHBP METAR/TAF

[source: ADDS]
METAR
TAF LHBP 221700Z 2218/2318 02007KT 8000 BKN020 BKN060 TEMPO 2218/2307 5000 RA SHRA BR SCT005 BKN015 PROB30 TEMPO 2218/2224 VRB15KT 3000 SHRA TSRA BKN010 SCT015CB OVC030 PROB30 TEMPO 2300/2307 2000 RADZ BR BKN005 OVC010 BECMG 2307/2309 9999 SCT030 SCT070 PROB40 TEMPO 2307/2318 7000 SHRA BKN020 TAF
TAF LHBP 221700Z 2218/2318 02007KT 8000 BKN020 BKN060 TEMPO 2218/2307 5000 RA SHRA BR SCT005 BKN015 PROB30 TEMPO 2218/2224 VRB15KT 3000 SHRA TSRA BKN010 SCT015CB OVC030 PROB30 TEMPO 2300/2307 2000 RADZ BR BKN005 OVC010 BECMG 2307/2309 9999 SCT030 SCT070 PROB40 TEMPO 2307/2318 7000 SHRA BKN020 =
SR / SS: 03:16 / 18:32 UTC (Börgönd 2014-07-22)
Hungarian Chinese (Simplified) Croatian Czech English Finnish French German Hebrew Italian Japanese Polish Portuguese Romanian Russian Serbian Slovak Slovenian Spanish

Belépés tagoknak